sensor_id;sensor_type;location;lat;lon;timestamp;temperature;humidity
73572;DHT22;61854;48.510;-2.770;2023-03-19T00:00:44;10.00;99.90
73572;DHT22;61854;48.510;-2.770;2023-03-19T00:03:10;10.10;99.90
73572;DHT22;61854;48.510;-2.770;2023-03-19T00:05:35;10.10;99.90
73572;DHT22;61854;48.510;-2.770;2023-03-19T00:08:01;10.20;99.90
73572;DHT22;61854;48.510;-2.770;2023-03-19T00:10:26;10.20;99.90
73572;DHT22;61854;48.510;-2.770;2023-03-19T00:12:52;10.20;99.90
73572;DHT22;61854;48.510;-2.770;2023-03-19T00:15:17;10.30;99.90
73572;DHT22;61854;48.510;-2.770;2023-03-19T00:17:43;10.30;99.90
73572;DHT22;61854;48.510;-2.770;2023-03-19T00:20:09;10.30;99.90
73572;DHT22;61854;48.510;-2.770;2023-03-19T00:22:35;10.30;99.90
73572;DHT22;61854;48.510;-2.770;2023-03-19T00:25:01;10.30;99.90
73572;DHT22;61854;48.510;-2.770;2023-03-19T00:27:27;10.40;99.90
73572;DHT22;61854;48.510;-2.770;2023-03-19T00:29:53;10.40;99.90
73572;DHT22;61854;48.510;-2.770;2023-03-19T00:32:18;10.40;99.90
73572;DHT22;61854;48.510;-2.770;2023-03-19T00:34:44;10.50;99.90
73572;DHT22;61854;48.510;-2.770;2023-03-19T00:37:10;10.50;99.90
73572;DHT22;61854;48.510;-2.770;2023-03-19T00:39:36;10.50;99.90
73572;DHT22;61854;48.510;-2.770;2023-03-19T00:42:02;10.50;99.90
73572;DHT22;61854;48.510;-2.770;2023-03-19T00:44:27;10.60;99.90
73572;DHT22;61854;48.510;-2.770;2023-03-19T00:46:53;10.60;99.90
73572;DHT22;61854;48.510;-2.770;2023-03-19T00:49:18;10.60;99.90
73572;DHT22;61854;48.510;-2.770;2023-03-19T00:51:44;10.70;99.90
73572;DHT22;61854;48.510;-2.770;2023-03-19T00:54:10;10.70;99.90
73572;DHT22;61854;48.510;-2.770;2023-03-19T00:56:36;10.70;99.90
73572;DHT22;61854;48.510;-2.770;2023-03-19T00:59:01;10.70;99.90
73572;DHT22;61854;48.510;-2.770;2023-03-19T01:01:27;10.70;99.90
73572;DHT22;61854;48.510;-2.770;2023-03-19T01:03:53;10.80;99.90
73572;DHT22;61854;48.510;-2.770;2023-03-19T01:06:18;10.80;99.90
73572;DHT22;61854;48.510;-2.770;2023-03-19T01:08:44;10.80;99.90
73572;DHT22;61854;48.510;-2.770;2023-03-19T01:11:13;10.80;99.90
73572;DHT22;61854;48.510;-2.770;2023-03-19T01:13:39;10.80;99.90
73572;DHT22;61854;48.510;-2.770;2023-03-19T01:16:05;10.70;99.90
73572;DHT22;61854;48.510;-2.770;2023-03-19T01:18:31;10.70;99.90
73572;DHT22;61854;48.510;-2.770;2023-03-19T01:20:57;10.70;99.90
73572;DHT22;61854;48.510;-2.770;2023-03-19T01:23:22;10.70;99.90
73572;DHT22;61854;48.510;-2.770;2023-03-19T01:25:48;10.70;99.90
73572;DHT22;61854;48.510;-2.770;2023-03-19T01:28:14;10.70;99.90
73572;DHT22;61854;48.510;-2.770;2023-03-19T01:30:39;10.60;99.90
73572;DHT22;61854;48.510;-2.770;2023-03-19T01:33:05;10.60;99.90
73572;DHT22;61854;48.510;-2.770;2023-03-19T01:35:31;10.60;99.90
73572;DHT22;61854;48.510;-2.770;2023-03-19T01:37:56;10.60;99.90
73572;DHT22;61854;48.510;-2.770;2023-03-19T01:40:22;10.60;99.90
73572;DHT22;61854;48.510;-2.770;2023-03-19T01:42:51;10.60;99.90
73572;DHT22;61854;48.510;-2.770;2023-03-19T01:45:30;10.60;99.90
73572;DHT22;61854;48.510;-2.770;2023-03-19T01:47:55;10.70;99.90
73572;DHT22;61854;48.510;-2.770;2023-03-19T01:50:30;10.60;99.90
73572;DHT22;61854;48.510;-2.770;2023-03-19T01:52:58;10.60;99.90
73572;DHT22;61854;48.510;-2.770;2023-03-19T01:55:25;10.60;99.90
73572;DHT22;61854;48.510;-2.770;2023-03-19T01:57:52;10.60;99.90
73572;DHT22;61854;48.510;-2.770;2023-03-19T02:00:17;10.60;99.90
73572;DHT22;61854;48.510;-2.770;2023-03-19T02:02:43;10.60;99.90
73572;DHT22;61854;48.510;-2.770;2023-03-19T02:05:11;10.50;99.90
73572;DHT22;61854;48.510;-2.770;2023-03-19T02:07:37;10.50;99.90
73572;DHT22;61854;48.510;-2.770;2023-03-19T02:10:14;10.50;99.90
73572;DHT22;61854;48.510;-2.770;2023-03-19T02:12:41;10.50;99.90
73572;DHT22;61854;48.510;-2.770;2023-03-19T02:15:06;10.40;99.90
73572;DHT22;61854;48.510;-2.770;2023-03-19T02:17:32;10.40;99.90
73572;DHT22;61854;48.510;-2.770;2023-03-19T02:22:28;10.40;99.90
73572;DHT22;61854;48.510;-2.770;2023-03-19T02:24:58;10.40;99.90
73572;DHT22;61854;48.510;-2.770;2023-03-19T02:27:26;10.40;99.90
73572;DHT22;61854;48.510;-2.770;2023-03-19T02:29:52;10.40;99.90
73572;DHT22;61854;48.510;-2.770;2023-03-19T02:32:17;10.30;99.90
73572;DHT22;61854;48.510;-2.770;2023-03-19T02:34:43;10.30;99.90
73572;DHT22;61854;48.510;-2.770;2023-03-19T02:37:27;10.30;99.90
73572;DHT22;61854;48.510;-2.770;2023-03-19T02:39:58;10.20;99.90
73572;DHT22;61854;48.510;-2.770;2023-03-19T02:42:26;10.20;99.90
73572;DHT22;61854;48.510;-2.770;2023-03-19T02:44:52;10.20;99.90
73572;DHT22;61854;48.510;-2.770;2023-03-19T02:47:17;10.10;99.90
73572;DHT22;61854;48.510;-2.770;2023-03-19T02:49:43;10.10;99.90
73572;DHT22;61854;48.510;-2.770;2023-03-19T02:52:09;10.10;99.90
73572;DHT22;61854;48.510;-2.770;2023-03-19T02:54:34;10.10;99.90
73572;DHT22;61854;48.510;-2.770;2023-03-19T02:57:00;10.00;99.90
73572;DHT22;61854;48.510;-2.770;2023-03-19T02:59:25;10.00;99.90
73572;DHT22;61854;48.510;-2.770;2023-03-19T03:01:51;9.90;99.90
73572;DHT22;61854;48.510;-2.770;2023-03-19T03:04:16;9.80;99.90
73572;DHT22;61854;48.510;-2.770;2023-03-19T03:06:42;9.80;99.90
73572;DHT22;61854;48.510;-2.770;2023-03-19T03:09:08;9.80;99.90
73572;DHT22;61854;48.510;-2.770;2023-03-19T03:11:34;9.80;99.90
73572;DHT22;61854;48.510;-2.770;2023-03-19T03:14:00;9.90;99.90
73572;DHT22;61854;48.510;-2.770;2023-03-19T03:16:25;9.90;99.90
73572;DHT22;61854;48.510;-2.770;2023-03-19T03:18:51;9.90;99.90
73572;DHT22;61854;48.510;-2.770;2023-03-19T03:21:17;10.00;99.90
73572;DHT22;61854;48.510;-2.770;2023-03-19T03:23:44;9.90;99.90
73572;DHT22;61854;48.510;-2.770;2023-03-19T03:26:10;10.00;99.90
73572;DHT22;61854;48.510;-2.770;2023-03-19T03:28:36;9.90;99.90
73572;DHT22;61854;48.510;-2.770;2023-03-19T03:31:01;9.90;99.90
73572;DHT22;61854;48.510;-2.770;2023-03-19T03:33:28;9.90;99.90
73572;DHT22;61854;48.510;-2.770;2023-03-19T03:35:54;9.90;99.90
73572;DHT22;61854;48.510;-2.770;2023-03-19T03:38:20;9.80;99.90
73572;DHT22;61854;48.510;-2.770;2023-03-19T03:40:48;9.80;99.90
73572;DHT22;61854;48.510;-2.770;2023-03-19T03:43:14;9.70;99.90
73572;DHT22;61854;48.510;-2.770;2023-03-19T03:45:40;9.60;99.90
73572;DHT22;61854;48.510;-2.770;2023-03-19T03:48:07;9.50;99.90
73572;DHT22;61854;48.510;-2.770;2023-03-19T03:50:33;9.50;99.90
73572;DHT22;61854;48.510;-2.770;2023-03-19T03:52:58;9.50;99.90
73572;DHT22;61854;48.510;-2.770;2023-03-19T03:55:24;9.50;99.90
73572;DHT22;61854;48.510;-2.770;2023-03-19T03:57:50;9.40;99.90
73572;DHT22;61854;48.510;-2.770;2023-03-19T04:00:16;9.40;99.90
73572;DHT22;61854;48.510;-2.770;2023-03-19T04:02:42;9.40;99.90
73572;DHT22;61854;48.510;-2.770;2023-03-19T04:05:09;9.40;99.90
73572;DHT22;61854;48.510;-2.770;2023-03-19T04:07:35;9.40;99.90
73572;DHT22;61854;48.510;-2.770;2023-03-19T04:10:01;9.40;99.90
73572;DHT22;61854;48.510;-2.770;2023-03-19T04:12:27;9.40;99.90
73572;DHT22;61854;48.510;-2.770;2023-03-19T04:14:52;9.40;99.90
73572;DHT22;61854;48.510;-2.770;2023-03-19T04:17:18;9.50;99.90
73572;DHT22;61854;48.510;-2.770;2023-03-19T04:19:43;9.50;99.90
73572;DHT22;61854;48.510;-2.770;2023-03-19T04:22:09;9.50;99.90
73572;DHT22;61854;48.510;-2.770;2023-03-19T04:24:34;9.50;99.90
73572;DHT22;61854;48.510;-2.770;2023-03-19T04:27:00;9.60;99.90
73572;DHT22;61854;48.510;-2.770;2023-03-19T04:29:26;9.60;99.90
73572;DHT22;61854;48.510;-2.770;2023-03-19T04:31:52;9.60;99.80
73572;DHT22;61854;48.510;-2.770;2023-03-19T04:34:17;9.60;99.90
73572;DHT22;61854;48.510;-2.770;2023-03-19T04:36:43;9.60;99.80
73572;DHT22;61854;48.510;-2.770;2023-03-19T04:39:09;9.70;99.70
73572;DHT22;61854;48.510;-2.770;2023-03-19T04:41:35;9.70;99.50
73572;DHT22;61854;48.510;-2.770;2023-03-19T04:44:00;9.70;99.30
73572;DHT22;61854;48.510;-2.770;2023-03-19T04:46:26;9.80;99.30
73572;DHT22;61854;48.510;-2.770;2023-03-19T04:48:52;9.80;99.10
73572;DHT22;61854;48.510;-2.770;2023-03-19T04:51:17;9.80;99.10
73572;DHT22;61854;48.510;-2.770;2023-03-19T04:53:45;9.80;99.20
73572;DHT22;61854;48.510;-2.770;2023-03-19T04:56:11;9.80;99.20
73572;DHT22;61854;48.510;-2.770;2023-03-19T04:58:40;9.80;99.20
73572;DHT22;61854;48.510;-2.770;2023-03-19T05:01:06;9.80;99.10
73572;DHT22;61854;48.510;-2.770;2023-03-19T05:03:31;9.80;99.00
73572;DHT22;61854;48.510;-2.770;2023-03-19T05:05:57;9.80;99.10
73572;DHT22;61854;48.510;-2.770;2023-03-19T05:08:22;9.80;99.30
73572;DHT22;61854;48.510;-2.770;2023-03-19T05:10:48;9.80;99.30
73572;DHT22;61854;48.510;-2.770;2023-03-19T05:13:13;9.80;99.20
73572;DHT22;61854;48.510;-2.770;2023-03-19T05:15:42;9.80;99.20
73572;DHT22;61854;48.510;-2.770;2023-03-19T05:18:08;9.80;99.10
73572;DHT22;61854;48.510;-2.770;2023-03-19T05:20:34;9.80;99.10
73572;DHT22;61854;48.510;-2.770;2023-03-19T05:23:01;9.70;98.90
73572;DHT22;61854;48.510;-2.770;2023-03-19T05:25:27;9.60;98.70
73572;DHT22;61854;48.510;-2.770;2023-03-19T05:27:53;9.50;98.60
73572;DHT22;61854;48.510;-2.770;2023-03-19T05:30:18;9.50;98.70
73572;DHT22;61854;48.510;-2.770;2023-03-19T05:32:44;9.40;98.80
73572;DHT22;61854;48.510;-2.770;2023-03-19T05:35:11;9.40;98.90
73572;DHT22;61854;48.510;-2.770;2023-03-19T05:37:37;9.30;99.00
73572;DHT22;61854;48.510;-2.770;2023-03-19T05:40:03;9.20;99.10
73572;DHT22;61854;48.510;-2.770;2023-03-19T05:42:28;9.20;99.20
73572;DHT22;61854;48.510;-2.770;2023-03-19T05:44:54;9.20;99.40
73572;DHT22;61854;48.510;-2.770;2023-03-19T05:47:19;9.30;99.40
73572;DHT22;61854;48.510;-2.770;2023-03-19T05:49:45;9.30;99.50
73572;DHT22;61854;48.510;-2.770;2023-03-19T05:52:11;9.30;99.40
73572;DHT22;61854;48.510;-2.770;2023-03-19T05:54:37;9.40;99.30
73572;DHT22;61854;48.510;-2.770;2023-03-19T05:57:02;9.40;99.30
73572;DHT22;61854;48.510;-2.770;2023-03-19T05:59:28;9.40;99.30
73572;DHT22;61854;48.510;-2.770;2023-03-19T06:01:54;9.40;99.20
73572;DHT22;61854;48.510;-2.770;2023-03-19T06:04:19;9.40;99.00
73572;DHT22;61854;48.510;-2.770;2023-03-19T06:06:45;9.50;98.90
73572;DHT22;61854;48.510;-2.770;2023-03-19T06:09:11;9.50;98.70
73572;DHT22;61854;48.510;-2.770;2023-03-19T06:11:37;9.50;98.60
73572;DHT22;61854;48.510;-2.770;2023-03-19T06:14:05;9.50;98.40
73572;DHT22;61854;48.510;-2.770;2023-03-19T06:16:31;9.40;98.40
73572;DHT22;61854;48.510;-2.770;2023-03-19T06:18:56;9.50;98.40
73572;DHT22;61854;48.510;-2.770;2023-03-19T06:21:22;9.50;98.40
73572;DHT22;61854;48.510;-2.770;2023-03-19T06:23:50;9.50;98.30
73572;DHT22;61854;48.510;-2.770;2023-03-19T06:26:15;9.50;98.30
73572;DHT22;61854;48.510;-2.770;2023-03-19T06:28:41;9.50;98.20
73572;DHT22;61854;48.510;-2.770;2023-03-19T06:31:07;9.50;98.30
73572;DHT22;61854;48.510;-2.770;2023-03-19T06:33:32;9.50;98.30
73572;DHT22;61854;48.510;-2.770;2023-03-19T06:35:58;9.50;98.20
73572;DHT22;61854;48.510;-2.770;2023-03-19T06:38:24;9.50;98.20
73572;DHT22;61854;48.510;-2.770;2023-03-19T06:40:49;9.50;98.40
73572;DHT22;61854;48.510;-2.770;2023-03-19T06:43:15;9.50;98.30
73572;DHT22;61854;48.510;-2.770;2023-03-19T06:45:41;9.50;98.30
73572;DHT22;61854;48.510;-2.770;2023-03-19T06:48:07;9.50;98.20
73572;DHT22;61854;48.510;-2.770;2023-03-19T06:50:32;9.50;98.30
73572;DHT22;61854;48.510;-2.770;2023-03-19T06:52:58;9.50;98.30
73572;DHT22;61854;48.510;-2.770;2023-03-19T06:55:23;9.50;98.30
73572;DHT22;61854;48.510;-2.770;2023-03-19T06:57:49;9.50;98.10
73572;DHT22;61854;48.510;-2.770;2023-03-19T07:00:15;9.50;98.00
73572;DHT22;61854;48.510;-2.770;2023-03-19T07:02:41;9.50;98.00
73572;DHT22;61854;48.510;-2.770;2023-03-19T07:05:06;9.50;97.80
73572;DHT22;61854;48.510;-2.770;2023-03-19T07:07:32;9.40;97.70
73572;DHT22;61854;48.510;-2.770;2023-03-19T07:09:58;9.40;97.60
73572;DHT22;61854;48.510;-2.770;2023-03-19T07:12:23;9.30;97.60
73572;DHT22;61854;48.510;-2.770;2023-03-19T07:14:54;9.30;97.70
73572;DHT22;61854;48.510;-2.770;2023-03-19T07:17:23;9.30;97.70
73572;DHT22;61854;48.510;-2.770;2023-03-19T07:19:48;9.20;98.00
73572;DHT22;61854;48.510;-2.770;2023-03-19T07:22:14;9.20;97.60
73572;DHT22;61854;48.510;-2.770;2023-03-19T07:24:40;9.20;97.60
73572;DHT22;61854;48.510;-2.770;2023-03-19T07:27:05;9.20;97.70
73572;DHT22;61854;48.510;-2.770;2023-03-19T07:29:31;9.30;97.70
73572;DHT22;61854;48.510;-2.770;2023-03-19T07:31:57;9.30;97.40
73572;DHT22;61854;48.510;-2.770;2023-03-19T07:34:22;9.40;97.20
73572;DHT22;61854;48.510;-2.770;2023-03-19T07:36:48;9.50;96.90
73572;DHT22;61854;48.510;-2.770;2023-03-19T07:39:13;9.50;96.80
73572;DHT22;61854;48.510;-2.770;2023-03-19T07:41:39;9.60;96.50
73572;DHT22;61854;48.510;-2.770;2023-03-19T07:44:05;9.70;96.40
73572;DHT22;61854;48.510;-2.770;2023-03-19T07:46:30;9.70;96.30
73572;DHT22;61854;48.510;-2.770;2023-03-19T07:48:56;9.80;95.90
73572;DHT22;61854;48.510;-2.770;2023-03-19T07:51:21;9.90;95.90
73572;DHT22;61854;48.510;-2.770;2023-03-19T07:53:47;10.10;95.70
73572;DHT22;61854;48.510;-2.770;2023-03-19T07:56:13;10.50;95.10
73572;DHT22;61854;48.510;-2.770;2023-03-19T07:58:38;10.90;93.70
73572;DHT22;61854;48.510;-2.770;2023-03-19T08:01:04;11.20;92.50
73572;DHT22;61854;48.510;-2.770;2023-03-19T08:03:30;11.50;91.70
73572;DHT22;61854;48.510;-2.770;2023-03-19T08:05:55;11.70;91.20
73572;DHT22;61854;48.510;-2.770;2023-03-19T08:08:21;11.60;89.70
73572;DHT22;61854;48.510;-2.770;2023-03-19T08:10:46;11.40;89.30
73572;DHT22;61854;48.510;-2.770;2023-03-19T08:13:14;11.20;90.00
73572;DHT22;61854;48.510;-2.770;2023-03-19T08:15:40;11.10;89.70
73572;DHT22;61854;48.510;-2.770;2023-03-19T08:18:05;11.00;89.90
73572;DHT22;61854;48.510;-2.770;2023-03-19T08:20:31;10.90;90.40
73572;DHT22;61854;48.510;-2.770;2023-03-19T08:22:57;10.90;88.80
73572;DHT22;61854;48.510;-2.770;2023-03-19T08:25:23;10.90;89.50
73572;DHT22;61854;48.510;-2.770;2023-03-19T08:27:49;11.00;89.30
73572;DHT22;61854;48.510;-2.770;2023-03-19T08:30:14;11.20;89.40
73572;DHT22;61854;48.510;-2.770;2023-03-19T08:32:41;11.30;87.50
73572;DHT22;61854;48.510;-2.770;2023-03-19T08:35:09;11.30;85.10
73572;DHT22;61854;48.510;-2.770;2023-03-19T08:37:35;11.30;82.60
73572;DHT22;61854;48.510;-2.770;2023-03-19T08:40:00;11.20;82.60
73572;DHT22;61854;48.510;-2.770;2023-03-19T08:42:26;11.10;82.70
73572;DHT22;61854;48.510;-2.770;2023-03-19T08:44:51;11.00;82.90
73572;DHT22;61854;48.510;-2.770;2023-03-19T08:47:17;10.90;83.70
73572;DHT22;61854;48.510;-2.770;2023-03-19T08:49:42;10.90;84.90
73572;DHT22;61854;48.510;-2.770;2023-03-19T08:52:08;11.00;84.80
73572;DHT22;61854;48.510;-2.770;2023-03-19T08:54:34;11.00;84.90
73572;DHT22;61854;48.510;-2.770;2023-03-19T08:57:00;11.00;85.30
73572;DHT22;61854;48.510;-2.770;2023-03-19T08:59:26;11.00;86.10
73572;DHT22;61854;48.510;-2.770;2023-03-19T09:01:52;11.00;83.90
73572;DHT22;61854;48.510;-2.770;2023-03-19T09:04:20;11.00;83.00
73572;DHT22;61854;48.510;-2.770;2023-03-19T09:06:46;11.00;81.30
73572;DHT22;61854;48.510;-2.770;2023-03-19T09:09:19;11.00;82.00
73572;DHT22;61854;48.510;-2.770;2023-03-19T09:11:45;11.20;81.60
73572;DHT22;61854;48.510;-2.770;2023-03-19T09:14:11;11.40;81.10
73572;DHT22;61854;48.510;-2.770;2023-03-19T09:16:37;11.40;80.20
73572;DHT22;61854;48.510;-2.770;2023-03-19T09:19:03;11.60;80.30
73572;DHT22;61854;48.510;-2.770;2023-03-19T09:21:28;11.50;78.80
73572;DHT22;61854;48.510;-2.770;2023-03-19T09:23:54;11.50;78.30
73572;DHT22;61854;48.510;-2.770;2023-03-19T09:26:19;11.40;77.70
73572;DHT22;61854;48.510;-2.770;2023-03-19T09:28:45;11.50;79.10
73572;DHT22;61854;48.510;-2.770;2023-03-19T09:31:10;11.60;77.80
73572;DHT22;61854;48.510;-2.770;2023-03-19T09:33:36;11.60;79.00
73572;DHT22;61854;48.510;-2.770;2023-03-19T09:36:02;11.60;79.50
73572;DHT22;61854;48.510;-2.770;2023-03-19T09:38:27;11.50;80.30
73572;DHT22;61854;48.510;-2.770;2023-03-19T09:43:45;11.50;80.00
73572;DHT22;61854;48.510;-2.770;2023-03-19T09:46:19;11.50;77.70
73572;DHT22;61854;48.510;-2.770;2023-03-19T09:51:20;11.50;77.30
73572;DHT22;61854;48.510;-2.770;2023-03-19T09:53:49;11.60;78.70
73572;DHT22;61854;48.510;-2.770;2023-03-19T09:56:17;11.70;77.80
73572;DHT22;61854;48.510;-2.770;2023-03-19T09:58:43;11.70;78.90
73572;DHT22;61854;48.510;-2.770;2023-03-19T10:01:32;11.70;79.70
73572;DHT22;61854;48.510;-2.770;2023-03-19T10:06:32;11.50;78.50
73572;DHT22;61854;48.510;-2.770;2023-03-19T10:14:01;11.40;79.00
73572;DHT22;61854;48.510;-2.770;2023-03-19T10:16:33;11.40;77.70
73572;DHT22;61854;48.510;-2.770;2023-03-19T10:19:00;11.50;75.40
73572;DHT22;61854;48.510;-2.770;2023-03-19T10:21:30;11.60;73.70
73572;DHT22;61854;48.510;-2.770;2023-03-19T10:24:14;11.60;74.20
73572;DHT22;61854;48.510;-2.770;2023-03-19T10:26:42;11.80;75.50
73572;DHT22;61854;48.510;-2.770;2023-03-19T10:29:13;11.80;75.90
73572;DHT22;61854;48.510;-2.770;2023-03-19T10:31:41;11.70;76.80
73572;DHT22;61854;48.510;-2.770;2023-03-19T10:36:34;11.70;77.50
73572;DHT22;61854;48.510;-2.770;2023-03-19T10:39:00;11.90;76.20
73572;DHT22;61854;48.510;-2.770;2023-03-19T10:44:10;12.00;72.90
73572;DHT22;61854;48.510;-2.770;2023-03-19T10:46:38;12.00;70.90
73572;DHT22;61854;48.510;-2.770;2023-03-19T10:49:04;11.90;69.70
73572;DHT22;61854;48.510;-2.770;2023-03-19T10:51:35;11.90;71.30
73572;DHT22;61854;48.510;-2.770;2023-03-19T10:54:02;11.90;72.50
73572;DHT22;61854;48.510;-2.770;2023-03-19T10:56:40;12.00;72.60
73572;DHT22;61854;48.510;-2.770;2023-03-19T10:59:20;12.00;71.10
73572;DHT22;61854;48.510;-2.770;2023-03-19T11:01:46;12.00;70.20
73572;DHT22;61854;48.510;-2.770;2023-03-19T11:04:21;12.00;69.40
73572;DHT22;61854;48.510;-2.770;2023-03-19T11:06:51;11.90;69.30
73572;DHT22;61854;48.510;-2.770;2023-03-19T11:09:22;12.10;71.20
73572;DHT22;61854;48.510;-2.770;2023-03-19T11:11:52;12.20;70.80
73572;DHT22;61854;48.510;-2.770;2023-03-19T11:17:18;12.30;69.50
73572;DHT22;61854;48.510;-2.770;2023-03-19T11:19:51;12.30;69.70
73572;DHT22;61854;48.510;-2.770;2023-03-19T11:24:48;12.00;71.80
73572;DHT22;61854;48.510;-2.770;2023-03-19T11:27:14;11.90;71.90
73572;DHT22;61854;48.510;-2.770;2023-03-19T11:29:41;12.00;71.30
73572;DHT22;61854;48.510;-2.770;2023-03-19T11:34:39;12.20;71.90
73572;DHT22;61854;48.510;-2.770;2023-03-19T11:45:05;12.40;68.20
73572;DHT22;61854;48.510;-2.770;2023-03-19T11:50:32;12.60;68.30
73572;DHT22;61854;48.510;-2.770;2023-03-19T11:58:43;13.10;66.10
73572;DHT22;61854;48.510;-2.770;2023-03-19T12:01:09;13.00;68.50
73572;DHT22;61854;48.510;-2.770;2023-03-19T12:06:09;12.70;68.30
73572;DHT22;61854;48.510;-2.770;2023-03-19T12:21:36;12.70;69.10
73572;DHT22;61854;48.510;-2.770;2023-03-19T12:32:24;13.10;64.90
73572;DHT22;61854;48.510;-2.770;2023-03-19T12:34:57;13.10;65.20
73572;DHT22;61854;48.510;-2.770;2023-03-19T12:37:27;13.10;64.90
73572;DHT22;61854;48.510;-2.770;2023-03-19T12:42:20;13.20;62.20
73572;DHT22;61854;48.510;-2.770;2023-03-19T12:44:47;13.30;63.20
73572;DHT22;61854;48.510;-2.770;2023-03-19T12:47:17;13.40;63.70
73572;DHT22;61854;48.510;-2.770;2023-03-19T12:49:53;13.50;63.60
73572;DHT22;61854;48.510;-2.770;2023-03-19T12:52:22;13.50;61.70
73572;DHT22;61854;48.510;-2.770;2023-03-19T12:54:54;13.50;61.40
73572;DHT22;61854;48.510;-2.770;2023-03-19T12:57:26;13.50;59.90
73572;DHT22;61854;48.510;-2.770;2023-03-19T13:02:55;13.40;62.90
73572;DHT22;61854;48.510;-2.770;2023-03-19T13:05:31;13.40;61.90
73572;DHT22;61854;48.510;-2.770;2023-03-19T13:08:03;13.60;60.40
73572;DHT22;61854;48.510;-2.770;2023-03-19T13:10:37;13.70;58.80
73572;DHT22;61854;48.510;-2.770;2023-03-19T13:15:45;13.70;58.40
73572;DHT22;61854;48.510;-2.770;2023-03-19T13:24:07;14.00;60.10
73572;DHT22;61854;48.510;-2.770;2023-03-19T13:26:38;14.20;60.00
73572;DHT22;61854;48.510;-2.770;2023-03-19T13:29:16;14.30;59.20
73572;DHT22;61854;48.510;-2.770;2023-03-19T13:31:42;14.30;59.40
73572;DHT22;61854;48.510;-2.770;2023-03-19T13:36:43;14.70;58.70
73572;DHT22;61854;48.510;-2.770;2023-03-19T13:39:17;14.90;57.10
73572;DHT22;61854;48.510;-2.770;2023-03-19T13:46:52;15.30;57.00
73572;DHT22;61854;48.510;-2.770;2023-03-19T13:51:46;16.00;53.30
73572;DHT22;61854;48.510;-2.770;2023-03-19T14:01:52;17.30;56.10
73572;DHT22;61854;48.510;-2.770;2023-03-19T14:04:19;17.40;54.50
73572;DHT22;61854;48.510;-2.770;2023-03-19T14:06:46;17.40;53.90
73572;DHT22;61854;48.510;-2.770;2023-03-19T14:09:32;17.30;55.30
73572;DHT22;61854;48.510;-2.770;2023-03-19T14:14:41;17.50;54.10
73572;DHT22;61854;48.510;-2.770;2023-03-19T14:19:44;18.00;51.30
73572;DHT22;61854;48.510;-2.770;2023-03-19T14:25:03;17.20;53.10
73572;DHT22;61854;48.510;-2.770;2023-03-19T14:27:35;17.00;54.80
73572;DHT22;61854;48.510;-2.770;2023-03-19T14:30:02;16.70;54.40
73572;DHT22;61854;48.510;-2.770;2023-03-19T14:32:33;16.20;56.20
73572;DHT22;61854;48.510;-2.770;2023-03-19T14:34:59;15.90;58.50
73572;DHT22;61854;48.510;-2.770;2023-03-19T14:37:30;16.00;58.90
73572;DHT22;61854;48.510;-2.770;2023-03-19T14:42:26;17.20;55.10
73572;DHT22;61854;48.510;-2.770;2023-03-19T14:45:13;17.70;52.80
73572;DHT22;61854;48.510;-2.770;2023-03-19T14:52:42;17.80;50.00
73572;DHT22;61854;48.510;-2.770;2023-03-19T14:55:09;17.10;51.30
73572;DHT22;61854;48.510;-2.770;2023-03-19T14:57:37;16.70;53.00
73572;DHT22;61854;48.510;-2.770;2023-03-19T15:00:03;16.30;55.60
73572;DHT22;61854;48.510;-2.770;2023-03-19T15:02:46;16.10;56.60
73572;DHT22;61854;48.510;-2.770;2023-03-19T15:07:45;15.90;57.20
73572;DHT22;61854;48.510;-2.770;2023-03-19T15:10:13;15.90;58.90
73572;DHT22;61854;48.510;-2.770;2023-03-19T15:13:00;15.90;58.20
73572;DHT22;61854;48.510;-2.770;2023-03-19T15:15:36;16.00;58.40
73572;DHT22;61854;48.510;-2.770;2023-03-19T15:18:04;16.10;58.30
73572;DHT22;61854;48.510;-2.770;2023-03-19T15:20:33;16.10;58.40
73572;DHT22;61854;48.510;-2.770;2023-03-19T15:23:00;16.00;58.20
73572;DHT22;61854;48.510;-2.770;2023-03-19T15:25:26;15.90;58.80
73572;DHT22;61854;48.510;-2.770;2023-03-19T15:30:29;15.40;61.30
73572;DHT22;61854;48.510;-2.770;2023-03-19T15:32:56;15.40;62.30
73572;DHT22;61854;48.510;-2.770;2023-03-19T15:35:23;15.30;62.60
73572;DHT22;61854;48.510;-2.770;2023-03-19T15:37:52;15.30;63.70
73572;DHT22;61854;48.510;-2.770;2023-03-19T15:40:19;15.40;63.10
73572;DHT22;61854;48.510;-2.770;2023-03-19T15:42:45;15.50;62.50
73572;DHT22;61854;48.510;-2.770;2023-03-19T15:45:12;15.50;61.60
73572;DHT22;61854;48.510;-2.770;2023-03-19T15:47:40;15.50;61.50
73572;DHT22;61854;48.510;-2.770;2023-03-19T15:50:09;15.60;62.00
73572;DHT22;61854;48.510;-2.770;2023-03-19T15:52:37;15.90;61.00
73572;DHT22;61854;48.510;-2.770;2023-03-19T15:55:03;16.20;59.90
73572;DHT22;61854;48.510;-2.770;2023-03-19T15:57:29;16.60;58.90
73572;DHT22;61854;48.510;-2.770;2023-03-19T15:59:55;16.80;57.50
73572;DHT22;61854;48.510;-2.770;2023-03-19T16:02:28;17.00;56.00
73572;DHT22;61854;48.510;-2.770;2023-03-19T16:04:55;17.10;55.60
73572;DHT22;61854;48.510;-2.770;2023-03-19T16:07:22;16.90;56.10
73572;DHT22;61854;48.510;-2.770;2023-03-19T16:09:48;16.80;57.40
73572;DHT22;61854;48.510;-2.770;2023-03-19T16:12:36;17.20;57.50
73572;DHT22;61854;48.510;-2.770;2023-03-19T16:15:00;17.70;56.20
73572;DHT22;61854;48.510;-2.770;2023-03-19T16:17:33;17.90;54.00
73572;DHT22;61854;48.510;-2.770;2023-03-19T16:19:59;18.20;52.90
73572;DHT22;61854;48.510;-2.770;2023-03-19T16:22:29;18.50;51.80
73572;DHT22;61854;48.510;-2.770;2023-03-19T16:24:55;18.50;51.00
73572;DHT22;61854;48.510;-2.770;2023-03-19T16:27:28;18.50;50.80
73572;DHT22;61854;48.510;-2.770;2023-03-19T16:29:56;18.30;51.50
73572;DHT22;61854;48.510;-2.770;2023-03-19T16:32:26;18.10;51.80
73572;DHT22;61854;48.510;-2.770;2023-03-19T16:42:37;18.60;51.70
73572;DHT22;61854;48.510;-2.770;2023-03-19T16:45:36;18.80;51.30
73572;DHT22;61854;48.510;-2.770;2023-03-19T16:47:55;19.10;50.00
73572;DHT22;61854;48.510;-2.770;2023-03-19T16:50:32;19.60;48.80
73572;DHT22;61854;48.510;-2.770;2023-03-19T16:52:58;19.90;47.00
73572;DHT22;61854;48.510;-2.770;2023-03-19T16:55:28;19.80;46.50
73572;DHT22;61854;48.510;-2.770;2023-03-19T16:58:17;19.40;47.40
73572;DHT22;61854;48.510;-2.770;2023-03-19T17:00:42;18.60;50.10
73572;DHT22;61854;48.510;-2.770;2023-03-19T17:03:15;18.10;52.10
73572;DHT22;61854;48.510;-2.770;2023-03-19T17:05:41;17.80;53.00
73572;DHT22;61854;48.510;-2.770;2023-03-19T17:08:07;17.90;54.00
73572;DHT22;61854;48.510;-2.770;2023-03-19T17:10:34;17.90;53.50
73572;DHT22;61854;48.510;-2.770;2023-03-19T17:13:00;17.80;53.60
73572;DHT22;61854;48.510;-2.770;2023-03-19T17:15:27;17.40;53.80
73572;DHT22;61854;48.510;-2.770;2023-03-19T17:17:53;17.00;56.00
73572;DHT22;61854;48.510;-2.770;2023-03-19T17:20:19;16.60;57.20
73572;DHT22;61854;48.510;-2.770;2023-03-19T17:22:46;16.30;58.10
73572;DHT22;61854;48.510;-2.770;2023-03-19T17:25:12;15.80;59.40
73572;DHT22;61854;48.510;-2.770;2023-03-19T17:27:38;15.60;60.80
73572;DHT22;61854;48.510;-2.770;2023-03-19T17:30:04;15.30;62.40